createdAt,value
2023-01-29T00:01:35.804Z,2.80
2023-01-29T00:04:03.014Z,2.10
2023-01-29T00:06:30.452Z,2.20
2023-01-29T00:08:57.881Z,2.30
2023-01-29T00:11:25.217Z,2.20
2023-01-29T00:13:52.861Z,2.10
2023-01-29T00:16:20.503Z,2.70
2023-01-29T00:18:47.601Z,2.30
2023-01-29T00:21:17.782Z,1.80
2023-01-29T00:23:45.665Z,2.30
2023-01-29T00:26:12.893Z,1.30
2023-01-29T00:28:40.612Z,2.10
2023-01-29T00:31:32.017Z,1.70
2023-01-29T00:33:59.200Z,2.40
2023-01-29T00:36:27.401Z,1.90
2023-01-29T00:39:00.091Z,1.60
2023-01-29T00:41:47.913Z,1.50
2023-01-29T00:44:34.408Z,1.70
2023-01-29T00:47:01.995Z,1.50
2023-01-29T00:49:29.955Z,1.80
2023-01-29T00:52:16.904Z,1.70
2023-01-29T00:54:44.398Z,1.80
2023-01-29T00:57:11.637Z,1.60
2023-01-29T00:59:38.751Z,2.30
2023-01-29T01:02:24.373Z,1.80
2023-01-29T01:04:51.864Z,1.30
2023-01-29T01:07:19.593Z,1.60
2023-01-29T01:10:05.012Z,1.70
2023-01-29T01:12:32.503Z,1.10
2023-01-29T01:14:59.774Z,1.20
2023-01-29T01:17:26.903Z,1.70
2023-01-29T01:19:54.043Z,1.20
2023-01-29T01:22:21.339Z,1.40
2023-01-29T01:24:48.564Z,1.60
2023-01-29T01:27:16.092Z,1.70
2023-01-29T01:29:43.206Z,1.60
2023-01-29T01:32:10.279Z,1.30
2023-01-29T01:34:38.048Z,1.40
2023-01-29T01:37:05.195Z,1.90
2023-01-29T01:39:32.307Z,2.30
2023-01-29T01:41:59.594Z,2.50
2023-01-29T01:44:54.411Z,2.50
2023-01-29T01:47:30.961Z,2.40
2023-01-29T01:50:07.205Z,2.00
2023-01-29T01:52:37.575Z,2.00
2023-01-29T01:55:05.886Z,1.90
2023-01-29T01:57:33.468Z,2.10
2023-01-29T02:00:13.683Z,2.30
2023-01-29T02:03:05.106Z,2.70
2023-01-29T02:05:53.193Z,1.90
2023-01-29T02:08:50.097Z,2.20
2023-01-29T02:11:17.690Z,2.10
2023-01-29T02:13:45.053Z,2.50
2023-01-29T02:16:12.353Z,2.30
2023-01-29T02:18:39.694Z,2.30
2023-01-29T02:21:24.559Z,2.30
2023-01-29T02:24:41.940Z,1.80
2023-01-29T02:27:11.441Z,2.10
2023-01-29T02:29:54.418Z,2.10
2023-01-29T02:32:54.179Z,3.00
2023-01-29T02:35:50.372Z,1.90
2023-01-29T02:38:42.649Z,1.90
2023-01-29T02:41:28.226Z,2.20
2023-01-29T02:44:13.732Z,1.80
2023-01-29T02:46:45.304Z,2.10
2023-01-29T02:49:21.400Z,1.80
2023-01-29T02:51:59.025Z,2.30
2023-01-29T02:54:46.548Z,2.30
2023-01-29T02:57:28.590Z,1.90
2023-01-29T03:00:08.978Z,2.50
2023-01-29T03:02:58.938Z,1.80
2023-01-29T03:06:02.065Z,2.10
2023-01-29T03:08:42.330Z,1.80
2023-01-29T03:11:15.612Z,1.90
2023-01-29T03:14:04.140Z,1.80
2023-01-29T03:16:53.506Z,1.90
2023-01-29T03:19:39.336Z,1.90
2023-01-29T03:22:16.120Z,1.50
2023-01-29T03:25:10.361Z,1.50
2023-01-29T03:28:03.749Z,1.90
2023-01-29T03:30:59.674Z,1.70
2023-01-29T03:33:56.269Z,2.00
2023-01-29T03:36:44.801Z,1.50
2023-01-29T03:39:15.023Z,1.50
2023-01-29T03:42:13.306Z,1.80
2023-01-29T03:44:50.029Z,2.20
2023-01-29T03:47:49.624Z,1.70
2023-01-29T03:50:52.368Z,2.00
2023-01-29T03:53:23.693Z,1.90
2023-01-29T03:56:53.779Z,1.90
2023-01-29T03:59:33.117Z,1.80
2023-01-29T04:02:29.431Z,2.00
2023-01-29T04:05:06.062Z,1.70
2023-01-29T04:07:36.807Z,1.70
2023-01-29T04:10:12.349Z,1.60
2023-01-29T04:13:01.822Z,1.80
2023-01-29T04:15:36.089Z,1.80
2023-01-29T04:18:03.580Z,1.70
2023-01-29T04:20:39.302Z,1.80
2023-01-29T04:23:07.332Z,1.30
2023-01-29T04:25:52.933Z,1.50
2023-01-29T04:28:45.896Z,1.70
2023-01-29T04:31:14.041Z,1.90
2023-01-29T04:34:05.920Z,1.70
2023-01-29T04:36:32.961Z,1.60
2023-01-29T04:39:52.582Z,1.70
2023-01-29T04:42:26.499Z,1.70
2023-01-29T04:45:27.601Z,1.30
2023-01-29T04:48:08.988Z,1.90
2023-01-29T04:50:42.299Z,1.40
2023-01-29T04:53:29.326Z,1.80
2023-01-29T04:56:11.305Z,1.70
2023-01-29T04:58:46.436Z,1.90
2023-01-29T05:01:17.300Z,1.60
2023-01-29T05:03:49.533Z,1.70
2023-01-29T05:06:19.518Z,1.80
2023-01-29T05:08:48.711Z,1.30
2023-01-29T05:11:18.073Z,2.10
2023-01-29T05:13:47.696Z,1.80
2023-01-29T05:16:29.243Z,1.50
2023-01-29T05:18:56.668Z,1.70
2023-01-29T05:21:24.549Z,2.10
2023-01-29T05:24:11.962Z,1.60
2023-01-29T05:26:58.975Z,1.80
2023-01-29T05:29:26.122Z,1.80
2023-01-29T05:31:53.355Z,1.90
2023-01-29T05:34:20.483Z,2.00
2023-01-29T05:36:47.628Z,1.70
2023-01-29T05:39:14.693Z,2.00
2023-01-29T05:41:42.296Z,1.90
2023-01-29T05:44:10.568Z,1.90
2023-01-29T05:46:38.336Z,2.50
2023-01-29T05:49:05.957Z,1.90
2023-01-29T05:51:33.112Z,2.20
2023-01-29T05:54:00.465Z,1.70
2023-01-29T05:56:27.706Z,1.90
2023-01-29T05:58:55.389Z,1.90
2023-01-29T06:01:25.236Z,2.50
2023-01-29T06:03:52.899Z,2.40
2023-01-29T06:06:20.116Z,1.90
2023-01-29T06:08:47.508Z,2.30
2023-01-29T06:11:17.777Z,1.60
2023-01-29T06:13:45.399Z,1.70
2023-01-29T06:16:13.611Z,1.60
2023-01-29T06:18:41.750Z,2.00
2023-01-29T06:21:12.207Z,1.80
2023-01-29T06:23:40.657Z,1.90
2023-01-29T06:26:11.011Z,2.00
2023-01-29T06:28:38.672Z,1.80
2023-01-29T06:31:26.605Z,2.30
2023-01-29T06:33:54.738Z,1.70
2023-01-29T06:36:21.804Z,1.60
2023-01-29T06:38:48.970Z,2.00
2023-01-29T06:41:18.158Z,1.80
2023-01-29T06:43:45.891Z,2.10
2023-01-29T06:46:13.491Z,1.90
2023-01-29T06:48:40.673Z,1.90
2023-01-29T06:51:09.607Z,1.60
2023-01-29T06:53:38.426Z,1.90
2023-01-29T06:56:06.502Z,1.90
2023-01-29T06:58:36.760Z,2.30
2023-01-29T07:01:15.512Z,1.80
2023-01-29T07:03:52.419Z,1.90
2023-01-29T07:06:19.765Z,1.60
2023-01-29T07:08:46.849Z,2.10
2023-01-29T07:11:13.989Z,2.10
2023-01-29T07:13:41.107Z,2.20
2023-01-29T07:16:09.137Z,1.90
2023-01-29T07:18:36.762Z,1.90
2023-01-29T07:21:06.370Z,2.40
2023-01-29T07:23:34.860Z,2.30
2023-01-29T07:26:04.307Z,2.40
2023-01-29T07:28:35.275Z,1.90
2023-01-29T07:31:02.401Z,1.80
2023-01-29T07:33:29.860Z,1.90
2023-01-29T07:35:57.083Z,2.60
2023-01-29T07:38:24.206Z,2.30
2023-01-29T07:40:54.622Z,2.10
2023-01-29T07:43:24.248Z,2.20
2023-01-29T07:45:51.873Z,2.30
2023-01-29T07:48:19.344Z,2.00
2023-01-29T07:50:54.201Z,2.80
2023-01-29T07:53:21.522Z,1.90
2023-01-29T07:55:48.632Z,1.90
2023-01-29T07:58:15.884Z,2.00
2023-01-29T08:00:43.301Z,2.30
2023-01-29T08:03:16.121Z,2.30
2023-01-29T08:05:44.420Z,2.30
2023-01-29T08:08:11.544Z,2.80
2023-01-29T08:10:40.185Z,2.00
2023-01-29T08:13:08.401Z,2.00
2023-01-29T08:15:38.037Z,2.60
2023-01-29T08:18:06.471Z,2.60
2023-01-29T08:20:33.824Z,1.90
2023-01-29T08:23:02.699Z,2.80
2023-01-29T08:25:30.274Z,2.70
2023-01-29T08:27:59.051Z,2.80
2023-01-29T08:30:28.100Z,2.60
2023-01-29T08:32:55.467Z,3.10
2023-01-29T08:35:23.192Z,2.30
2023-01-29T08:38:02.045Z,2.80
2023-01-29T08:40:34.561Z,3.10
2023-01-29T08:43:08.740Z,3.10
2023-01-29T08:45:39.794Z,2.70
2023-01-29T08:48:08.523Z,2.40
2023-01-29T08:50:36.563Z,2.30
2023-01-29T08:53:07.463Z,2.00
2023-01-29T08:55:39.621Z,1.80
2023-01-29T08:58:10.095Z,2.90
2023-01-29T09:00:37.845Z,2.70
2023-01-29T09:03:07.246Z,2.50
2023-01-29T09:05:35.752Z,2.20
2023-01-29T09:08:03.534Z,2.60
2023-01-29T09:10:30.670Z,2.60
2023-01-29T09:12:58.252Z,2.50
2023-01-29T09:15:25.702Z,2.60
2023-01-29T09:17:52.903Z,2.60
2023-01-29T09:20:20.237Z,2.20
2023-01-29T09:22:47.648Z,2.40
2023-01-29T09:25:15.681Z,2.80
2023-01-29T09:27:43.015Z,3.20
2023-01-29T09:30:11.507Z,2.90
2023-01-29T09:32:54.755Z,2.60
2023-01-29T09:35:23.188Z,2.10
2023-01-29T09:37:51.526Z,2.50
2023-01-29T09:40:43.325Z,2.80
2023-01-29T09:43:17.871Z,2.60
2023-01-29T09:46:14.728Z,2.40
2023-01-29T09:48:42.843Z,2.10
2023-01-29T09:51:26.674Z,2.70
2023-01-29T09:54:23.070Z,2.90
2023-01-29T09:56:55.796Z,2.70
2023-01-29T09:59:26.224Z,2.60
2023-01-29T10:02:10.527Z,2.60
2023-01-29T10:04:55.964Z,2.50
2023-01-29T10:07:35.094Z,2.80
2023-01-29T10:10:07.090Z,3.20
2023-01-29T10:12:53.266Z,2.90
2023-01-29T10:15:45.156Z,2.30
2023-01-29T10:18:18.395Z,2.00
2023-01-29T10:21:13.679Z,2.70
2023-01-29T10:23:49.167Z,3.40
2023-01-29T10:26:18.190Z,2.50
2023-01-29T10:28:51.102Z,3.00
2023-01-29T10:31:53.235Z,2.20
2023-01-29T10:35:33.435Z,2.70
2023-01-29T10:38:30.654Z,2.90
2023-01-29T10:41:09.821Z,2.80
2023-01-29T10:44:14.520Z,2.30
2023-01-29T10:47:09.179Z,2.70
2023-01-29T10:49:57.314Z,3.20
2023-01-29T10:52:46.040Z,3.80
2023-01-29T10:55:41.608Z,3.10
2023-01-29T10:58:27.022Z,3.40
2023-01-29T11:00:54.157Z,3.00
2023-01-29T11:03:28.851Z,2.50
2023-01-29T11:05:58.880Z,3.30
2023-01-29T11:08:31.238Z,2.20
2023-01-29T11:10:58.302Z,2.60
2023-01-29T11:13:35.089Z,3.50
2023-01-29T11:16:05.338Z,3.30
2023-01-29T11:18:59.062Z,3.80
2023-01-29T11:21:28.152Z,3.10
2023-01-29T11:24:16.537Z,2.70
2023-01-29T11:26:46.421Z,3.80
2023-01-29T11:29:35.309Z,3.20
2023-01-29T11:32:11.596Z,3.10
2023-01-29T11:34:58.057Z,3.20
2023-01-29T11:37:38.506Z,2.60
2023-01-29T11:40:35.852Z,3.20
2023-01-29T11:43:32.461Z,3.00
2023-01-29T11:46:06.944Z,4.10
2023-01-29T11:48:56.383Z,3.30
2023-01-29T11:51:27.275Z,3.50
2023-01-29T11:54:01.759Z,4.10
2023-01-29T11:56:35.339Z,4.10
2023-01-29T11:59:04.063Z,4.50
2023-01-29T12:01:40.973Z,3.90
2023-01-29T12:04:20.412Z,4.40
2023-01-29T12:06:52.562Z,3.90
2023-01-29T12:09:23.238Z,4.40
2023-01-29T12:11:52.112Z,4.70
2023-01-29T12:14:30.335Z,4.30
2023-01-29T12:17:07.710Z,3.60
2023-01-29T12:19:42.597Z,3.60
2023-01-29T12:22:34.951Z,4.10
2023-01-29T12:25:25.434Z,4.20
2023-01-29T12:28:46.445Z,4.90
2023-01-29T12:31:28.850Z,3.80
2023-01-29T12:34:25.262Z,3.70
2023-01-29T12:37:02.758Z,4.50
2023-01-29T12:39:32.051Z,4.00
2023-01-29T12:42:08.901Z,4.20
2023-01-29T12:44:44.576Z,4.10
2023-01-29T12:47:39.191Z,3.60
2023-01-29T12:50:34.103Z,4.90
2023-01-29T12:53:25.960Z,4.00
2023-01-29T12:56:16.180Z,4.40
2023-01-29T12:58:49.158Z,4.00
2023-01-29T13:01:33.210Z,3.90
2023-01-29T13:04:06.175Z,3.90
2023-01-29T13:06:42.370Z,4.60
2023-01-29T13:09:16.853Z,3.90
2023-01-29T13:12:01.015Z,4.40
2023-01-29T13:14:31.267Z,4.10
2023-01-29T13:17:10.111Z,4.60
2023-01-29T13:19:45.180Z,4.50
2023-01-29T13:22:34.937Z,4.40
2023-01-29T13:25:05.378Z,3.70
2023-01-29T13:27:35.693Z,3.70
2023-01-29T13:30:04.604Z,3.70
2023-01-29T13:32:35.276Z,3.90
2023-01-29T13:35:13.702Z,4.00
2023-01-29T13:37:49.288Z,3.50
2023-01-29T13:40:25.150Z,2.70
2023-01-29T13:42:56.558Z,3.90
2023-01-29T13:45:46.003Z,4.10
2023-01-29T13:48:28.180Z,4.30
2023-01-29T13:50:59.589Z,4.30
2023-01-29T13:53:42.081Z,3.60
2023-01-29T13:56:34.347Z,3.10
2023-01-29T13:59:05.918Z,3.60
2023-01-29T14:02:04.151Z,4.00
2023-01-29T14:04:32.187Z,3.60
2023-01-29T14:07:02.696Z,3.80
2023-01-29T14:09:54.587Z,3.60
2023-01-29T14:12:21.675Z,3.60
2023-01-29T14:14:51.692Z,5.20
2023-01-29T14:17:20.456Z,5.40
2023-01-29T14:19:53.524Z,5.60
2023-01-29T14:22:27.248Z,3.90
2023-01-29T14:24:59.781Z,4.40
2023-01-29T14:27:27.782Z,4.20
2023-01-29T14:30:01.353Z,3.70
2023-01-29T14:32:29.607Z,4.50
2023-01-29T14:35:02.966Z,2.90
2023-01-29T14:37:38.390Z,3.30
2023-01-29T14:40:11.638Z,4.00
2023-01-29T14:43:19.344Z,3.60
2023-01-29T14:45:48.293Z,3.10
2023-01-29T14:48:45.222Z,3.30
2023-01-29T14:51:22.835Z,3.80
2023-01-29T14:54:02.123Z,4.20
2023-01-29T14:56:37.079Z,3.60
2023-01-29T14:59:22.162Z,3.40
2023-01-29T15:01:55.712Z,3.20
2023-01-29T15:04:51.231Z,3.40
2023-01-29T15:07:37.389Z,3.20
2023-01-29T15:10:23.253Z,3.40
2023-01-29T15:12:57.121Z,3.00
2023-01-29T15:15:46.104Z,4.10
2023-01-29T15:18:15.760Z,3.60
2023-01-29T15:20:43.802Z,3.10
2023-01-29T15:23:32.008Z,2.80
2023-01-29T15:26:02.649Z,4.00
2023-01-29T15:28:32.175Z,3.20
2023-01-29T15:31:01.466Z,3.30
2023-01-29T15:33:28.846Z,2.90
2023-01-29T15:36:08.278Z,3.40
2023-01-29T15:38:36.321Z,3.70
2023-01-29T15:41:14.404Z,2.90
2023-01-29T15:43:47.471Z,3.80
2023-01-29T15:46:24.230Z,3.60
2023-01-29T15:48:55.600Z,3.10
2023-01-29T15:51:26.816Z,3.50
2023-01-29T15:54:02.440Z,4.00
2023-01-29T15:56:50.103Z,4.50
2023-01-29T15:59:21.759Z,3.40
2023-01-29T16:01:53.258Z,3.10
2023-01-29T16:04:26.412Z,3.20
2023-01-29T16:06:56.009Z,3.10
2023-01-29T16:09:26.082Z,3.50
2023-01-29T16:11:57.020Z,3.60
2023-01-29T16:14:25.245Z,3.70
2023-01-29T16:16:53.416Z,3.50
2023-01-29T16:19:29.414Z,4.00
2023-01-29T16:22:06.683Z,3.80
2023-01-29T16:24:40.698Z,4.30
2023-01-29T16:27:13.704Z,3.70
2023-01-29T16:29:41.246Z,3.90
2023-01-29T16:32:08.975Z,3.70
2023-01-29T16:34:42.472Z,3.90
2023-01-29T16:37:36.301Z,4.20
2023-01-29T16:40:14.811Z,3.50
2023-01-29T16:42:42.497Z,3.50
2023-01-29T16:45:27.645Z,4.70
2023-01-29T16:48:18.825Z,4.70
2023-01-29T16:50:54.903Z,4.90
2023-01-29T16:53:26.876Z,3.50
2023-01-29T16:56:09.360Z,4.10
2023-01-29T16:58:57.263Z,4.30
2023-01-29T17:02:04.098Z,3.60
2023-01-29T17:04:41.889Z,4.20
2023-01-29T17:07:21.515Z,4.00
2023-01-29T17:09:53.908Z,4.40
2023-01-29T17:12:32.831Z,3.60
2023-01-29T17:15:24.497Z,3.70
2023-01-29T17:17:55.452Z,4.20
2023-01-29T17:20:23.366Z,4.50
2023-01-29T17:22:51.322Z,4.40
2023-01-29T17:25:30.132Z,3.10
2023-01-29T17:28:01.728Z,3.20
2023-01-29T17:31:05.727Z,3.30
2023-01-29T17:33:36.828Z,3.60
2023-01-29T17:36:20.721Z,3.80
2023-01-29T17:38:48.062Z,3.20
2023-01-29T17:41:24.373Z,3.20
2023-01-29T17:43:51.480Z,3.30
2023-01-29T17:46:22.299Z,3.80
2023-01-29T17:48:50.212Z,4.10
2023-01-29T17:51:19.098Z,3.10
2023-01-29T17:53:47.610Z,3.10
2023-01-29T17:56:26.981Z,3.70
2023-01-29T17:58:54.573Z,3.20
2023-01-29T18:01:21.700Z,3.00
2023-01-29T18:03:48.938Z,3.20
2023-01-29T18:06:27.039Z,3.70
2023-01-29T18:08:55.913Z,4.30
2023-01-29T18:11:23.835Z,3.30
2023-01-29T18:13:51.262Z,3.50
2023-01-29T18:16:21.308Z,3.60
2023-01-29T18:18:49.838Z,3.80
2023-01-29T18:21:17.959Z,3.10
2023-01-29T18:23:45.041Z,3.70
2023-01-29T18:26:16.268Z,3.30
2023-01-29T18:28:43.516Z,3.50
2023-01-29T18:31:13.160Z,3.80
2023-01-29T18:33:41.781Z,3.60
2023-01-29T18:36:22.707Z,2.70
2023-01-29T18:38:59.121Z,3.40
2023-01-29T18:41:28.038Z,3.40
2023-01-29T18:43:55.214Z,3.00
2023-01-29T18:46:23.752Z,3.80
2023-01-29T18:48:50.897Z,4.00
2023-01-29T18:51:21.332Z,3.40
2023-01-29T18:54:11.137Z,3.20
2023-01-29T18:56:39.039Z,3.30
2023-01-29T18:59:27.641Z,3.40
2023-01-29T19:01:54.992Z,2.70
2023-01-29T19:04:22.268Z,3.80
2023-01-29T19:06:49.349Z,3.90
2023-01-29T19:09:17.156Z,2.70
2023-01-29T19:11:44.244Z,3.20
2023-01-29T19:14:14.138Z,3.00
2023-01-29T19:16:44.201Z,4.40
2023-01-29T19:19:27.017Z,3.70
2023-01-29T19:21:54.346Z,3.60
2023-01-29T19:24:25.435Z,3.10
2023-01-29T19:26:53.132Z,3.50
2023-01-29T19:29:20.934Z,4.00
2023-01-29T19:31:48.871Z,3.10
2023-01-29T19:34:22.373Z,2.90
2023-01-29T19:36:52.129Z,3.40
2023-01-29T19:39:19.415Z,3.00
2023-01-29T19:41:48.523Z,3.10
2023-01-29T19:44:16.699Z,3.20
2023-01-29T19:46:43.882Z,2.90
2023-01-29T19:49:14.280Z,2.90
2023-01-29T19:51:42.478Z,3.00
2023-01-29T19:54:16.279Z,2.70
2023-01-29T19:56:49.104Z,2.60
2023-01-29T19:59:16.682Z,2.10
2023-01-29T20:01:43.953Z,2.90
2023-01-29T20:04:11.770Z,3.20
2023-01-29T20:06:40.209Z,3.60
2023-01-29T20:09:13.463Z,3.00
2023-01-29T20:11:55.964Z,1.90
2023-01-29T20:14:32.015Z,2.70
2023-01-29T20:16:59.155Z,3.10
2023-01-29T20:19:26.272Z,3.00
2023-01-29T20:21:54.988Z,2.40
2023-01-29T20:24:24.092Z,2.20
2023-01-29T20:26:51.306Z,2.50
2023-01-29T20:29:18.996Z,3.50
2023-01-29T20:31:46.419Z,3.00
2023-01-29T20:34:13.635Z,3.30
2023-01-29T20:37:04.903Z,2.30
2023-01-29T20:39:49.874Z,2.30
2023-01-29T20:42:17.172Z,3.10
2023-01-29T20:44:44.823Z,2.50
2023-01-29T20:47:12.666Z,2.60
2023-01-29T20:49:40.239Z,2.60
2023-01-29T20:52:16.647Z,3.10
2023-01-29T20:54:56.850Z,2.50
2023-01-29T20:57:27.689Z,2.40
2023-01-29T20:59:54.989Z,3.00
2023-01-29T21:02:30.676Z,2.80
2023-01-29T21:05:12.366Z,3.30
2023-01-29T21:07:44.827Z,2.20
2023-01-29T21:10:19.762Z,2.70
2023-01-29T21:12:47.280Z,2.80
2023-01-29T21:21:08.672Z,2.50
2023-01-29T21:23:42.442Z,2.70
2023-01-29T21:26:13.331Z,1.90
2023-01-29T21:28:45.934Z,2.30
2023-01-29T21:31:17.425Z,2.40
2023-01-29T21:34:03.978Z,3.30
2023-01-29T21:37:09.440Z,2.30
2023-01-29T21:39:39.562Z,2.50
2023-01-29T21:42:29.685Z,3.10
2023-01-29T21:45:06.690Z,2.30
2023-01-29T21:47:34.359Z,2.60
2023-01-29T21:50:24.736Z,2.20
2023-01-29T21:52:56.211Z,2.40
2023-01-29T21:55:40.442Z,2.40
2023-01-29T21:58:26.209Z,3.00
2023-01-29T22:01:35.926Z,2.40
2023-01-29T22:03:49.178Z,2.30
2023-01-29T22:06:47.874Z,2.10
2023-01-29T22:09:22.655Z,2.40
2023-01-29T22:11:56.735Z,3.00
2023-01-29T22:14:32.463Z,2.60
2023-01-29T22:17:27.912Z,3.00
2023-01-29T22:20:17.046Z,2.20
2023-01-29T22:23:17.284Z,3.40
2023-01-29T22:26:18.487Z,2.30
2023-01-29T22:29:03.055Z,2.80
2023-01-29T22:34:21.153Z,2.90
2023-01-29T22:36:48.814Z,2.40
2023-01-29T22:39:38.607Z,2.00
2023-01-29T22:42:19.865Z,2.80
2023-01-29T22:44:52.183Z,2.50
2023-01-29T22:47:19.663Z,2.00
2023-01-29T22:49:49.846Z,3.20
2023-01-29T22:52:20.907Z,2.60
2023-01-29T22:54:48.156Z,2.20
2023-01-29T22:57:50.857Z,2.60
2023-01-29T23:00:20.209Z,2.90
2023-01-29T23:02:48.328Z,3.10
2023-01-29T23:05:16.853Z,2.50
2023-01-29T23:07:50.136Z,2.10
2023-01-29T23:10:24.143Z,2.80
2023-01-29T23:13:06.184Z,2.50
2023-01-29T23:15:33.824Z,2.80
2023-01-29T23:18:01.344Z,2.40
2023-01-29T23:20:30.113Z,1.90
2023-01-29T23:23:00.193Z,2.80
2023-01-29T23:25:51.943Z,2.70
2023-01-29T23:28:23.632Z,2.30
2023-01-29T23:31:28.253Z,2.60
2023-01-29T23:34:15.477Z,2.90
2023-01-29T23:36:44.768Z,2.10
2023-01-29T23:39:24.924Z,2.30
2023-01-29T23:41:52.424Z,2.70
2023-01-29T23:44:54.185Z,3.00
2023-01-29T23:47:45.015Z,2.60
2023-01-29T23:50:13.237Z,2.50
2023-01-29T23:52:41.719Z,2.40
2023-01-29T23:55:24.608Z,2.50
2023-01-29T23:58:02.122Z,2.60
